createdAt,value
2024-01-30T00:02:20.106Z,3.80
2024-01-30T00:06:22.233Z,4.93
2024-01-30T00:10:23.823Z,3.22
2024-01-30T00:14:25.437Z,2.88
2024-01-30T00:18:26.899Z,4.68
2024-01-30T00:22:31.440Z,3.05
2024-01-30T00:26:32.911Z,4.13
2024-01-30T00:30:34.354Z,4.45
2024-01-30T00:34:36.012Z,4.35
2024-01-30T00:38:38.585Z,3.75
2024-01-30T00:42:40.057Z,3.25
2024-01-30T00:46:41.541Z,3.17
2024-01-30T00:50:43.025Z,2.80
2024-01-30T00:54:45.067Z,2.92
2024-01-30T00:58:46.934Z,4.55
2024-01-30T01:02:48.496Z,3.08
2024-01-30T01:06:50.326Z,3.10
2024-01-30T01:10:51.862Z,2.38
2024-01-30T01:14:53.486Z,3.22
2024-01-30T01:18:55.032Z,4.10
2024-01-30T01:22:56.525Z,3.95
2024-01-30T01:26:59.797Z,3.42
2024-01-30T01:31:06.279Z,3.33
2024-01-30T01:35:08.163Z,3.53
2024-01-30T01:39:09.864Z,4.18
2024-01-30T01:43:11.401Z,2.65
2024-01-30T01:47:12.917Z,3.65
2024-01-30T01:51:15.380Z,2.78
2024-01-30T01:55:18.695Z,4.03
2024-01-30T01:59:21.457Z,3.75
2024-01-30T02:03:23.274Z,3.55
2024-01-30T02:07:25.473Z,4.35
2024-01-30T02:11:27.457Z,3.05
2024-01-30T02:15:30.194Z,2.92
2024-01-30T02:19:31.785Z,2.33
2024-01-30T02:23:35.448Z,3.97
2024-01-30T02:27:37.281Z,3.28
2024-01-30T02:31:38.704Z,3.80
2024-01-30T02:35:40.394Z,3.05
2024-01-30T02:39:41.874Z,3.28
2024-01-30T02:43:43.344Z,4.07
2024-01-30T02:47:45.037Z,3.50
2024-01-30T02:51:46.564Z,3.45
2024-01-30T02:55:48.256Z,3.55
2024-01-30T02:59:49.810Z,3.00
2024-01-30T03:03:51.516Z,4.07
2024-01-30T03:07:53.161Z,4.55
2024-01-30T03:11:54.673Z,5.32
2024-01-30T03:15:56.125Z,3.45
2024-01-30T03:19:57.864Z,3.15
2024-01-30T03:23:59.409Z,3.33
2024-01-30T03:28:00.963Z,3.75
2024-01-30T03:32:02.497Z,3.63
2024-01-30T03:36:05.854Z,4.32
2024-01-30T03:40:07.965Z,4.60
2024-01-30T03:44:09.514Z,3.88
2024-01-30T03:48:11.042Z,2.80
2024-01-30T03:52:12.566Z,3.88
2024-01-30T03:56:15.018Z,5.47
2024-01-30T04:00:16.856Z,3.28
2024-01-30T04:04:21.776Z,4.20
2024-01-30T04:08:23.746Z,3.80
2024-01-30T04:12:25.505Z,2.38
2024-01-30T04:16:27.162Z,3.15
2024-01-30T04:20:28.822Z,4.07
2024-01-30T04:24:30.306Z,3.90
2024-01-30T04:28:31.956Z,5.28
2024-01-30T04:32:33.828Z,4.03
2024-01-30T04:36:35.286Z,3.47
2024-01-30T04:40:36.817Z,2.83
2024-01-30T04:44:38.381Z,6.22
2024-01-30T04:48:40.066Z,4.28
2024-01-30T04:52:41.673Z,5.25
2024-01-30T04:56:43.124Z,5.55
2024-01-30T05:00:44.888Z,4.97
2024-01-30T05:04:46.667Z,9.10
2024-01-30T05:08:48.179Z,4.05
2024-01-30T05:12:49.749Z,9.73
2024-01-30T05:16:51.221Z,6.22
2024-01-30T05:20:52.724Z,7.68
2024-01-30T05:24:54.273Z,6.15
2024-01-30T05:28:55.835Z,6.97
2024-01-30T05:32:57.450Z,8.35
2024-01-30T05:36:58.996Z,7.47
2024-01-30T05:41:00.496Z,9.18
2024-01-30T05:45:01.962Z,5.97
2024-01-30T05:49:03.564Z,9.45
2024-01-30T05:53:05.142Z,9.55
2024-01-30T05:57:06.754Z,8.38
2024-01-30T06:01:09.816Z,7.43
2024-01-30T06:05:11.501Z,8.52
2024-01-30T06:09:14.140Z,6.20
2024-01-30T06:13:15.785Z,5.30
2024-01-30T06:17:17.641Z,7.57
2024-01-30T06:21:19.489Z,5.82
2024-01-30T06:25:21.107Z,7.07
2024-01-30T06:29:23.058Z,6.80
2024-01-30T06:33:24.642Z,6.25
2024-01-30T06:37:26.195Z,8.32
2024-01-30T06:41:27.834Z,5.75
2024-01-30T06:45:29.284Z,5.38
2024-01-30T06:49:30.906Z,8.70
2024-01-30T06:53:32.474Z,7.63
2024-01-30T06:57:33.983Z,5.93
2024-01-30T07:01:35.543Z,4.97
2024-01-30T07:05:37.165Z,4.63
2024-01-30T07:09:38.615Z,7.05
2024-01-30T07:13:40.074Z,7.10
2024-01-30T07:17:42.463Z,5.10
2024-01-30T07:21:44.010Z,3.92
2024-01-30T07:25:48.409Z,6.40
2024-01-30T07:29:51.402Z,4.03
2024-01-30T07:33:52.902Z,4.95
2024-01-30T07:37:54.413Z,4.90
2024-01-30T07:41:55.861Z,4.75
2024-01-30T07:45:57.548Z,6.22
2024-01-30T07:49:59.126Z,6.43
2024-01-30T07:54:00.725Z,3.85
2024-01-30T07:58:02.836Z,5.05
2024-01-30T08:02:04.761Z,4.93
2024-01-30T08:06:07.790Z,7.28
2024-01-30T08:10:09.962Z,7.38
2024-01-30T08:14:11.783Z,5.10
2024-01-30T08:18:13.587Z,3.50
2024-01-30T08:22:15.147Z,4.63
2024-01-30T08:26:16.791Z,3.88
2024-01-30T08:30:18.377Z,3.90
2024-01-30T08:34:20.356Z,3.08
2024-01-30T08:38:21.824Z,6.68
2024-01-30T08:42:24.063Z,4.70
2024-01-30T08:46:25.904Z,3.17
2024-01-30T08:50:27.874Z,4.03
2024-01-30T08:54:29.484Z,3.00
2024-01-30T08:58:31.668Z,5.15
2024-01-30T09:02:34.378Z,3.70
2024-01-30T09:06:35.898Z,3.40
2024-01-30T09:10:38.416Z,4.28
2024-01-30T09:14:41.723Z,4.38
2024-01-30T09:18:43.436Z,4.25
2024-01-30T09:22:44.972Z,4.70
2024-01-30T09:26:46.507Z,7.65
2024-01-30T09:30:48.090Z,7.95
2024-01-30T09:34:49.783Z,5.00
2024-01-30T09:38:51.557Z,7.38
2024-01-30T09:42:53.227Z,6.80
2024-01-30T09:46:54.834Z,5.78
2024-01-30T09:50:58.508Z,7.43
2024-01-30T09:55:02.258Z,7.47
2024-01-30T09:59:03.828Z,8.70
2024-01-30T10:03:05.943Z,4.85
2024-01-30T10:07:10.336Z,6.40
2024-01-30T10:11:12.275Z,8.88
2024-01-30T10:15:15.285Z,7.60
2024-01-30T10:19:16.844Z,6.78
2024-01-30T10:23:20.161Z,5.43
2024-01-30T10:27:27.858Z,8.65
2024-01-30T10:31:29.488Z,6.20
2024-01-30T10:35:31.143Z,7.68
2024-01-30T10:39:35.185Z,7.70
2024-01-30T10:43:39.302Z,6.75
2024-01-30T10:47:49.586Z,5.65
2024-01-30T10:51:52.958Z,6.68
2024-01-30T10:55:56.360Z,7.82
2024-01-30T10:59:59.532Z,11.95
2024-01-30T11:04:01.188Z,8.80
2024-01-30T11:08:15.175Z,7.93
2024-01-30T11:12:16.789Z,5.90
2024-01-30T11:16:18.294Z,7.45
2024-01-30T11:20:26.510Z,7.68
2024-01-30T11:24:28.794Z,6.47
2024-01-30T11:28:35.800Z,7.78
2024-01-30T11:32:38.124Z,7.70
2024-01-30T11:36:44.147Z,5.05
2024-01-30T11:40:46.990Z,7.53
2024-01-30T11:44:50.142Z,6.45
2024-01-30T11:48:53.196Z,7.60
2024-01-30T11:52:55.622Z,8.48
2024-01-30T11:56:57.058Z,5.20
2024-01-30T12:00:59.291Z,7.03
2024-01-30T12:05:05.863Z,5.55
2024-01-30T12:09:11.076Z,7.45
2024-01-30T12:13:13.726Z,6.35
2024-01-30T12:17:25.889Z,4.05
2024-01-30T12:21:27.608Z,3.97
2024-01-30T12:25:29.411Z,4.97
2024-01-30T12:29:36.274Z,5.07
2024-01-30T12:33:40.003Z,4.97
2024-01-30T12:37:43.750Z,4.65
2024-01-30T12:41:45.392Z,4.28
2024-01-30T12:45:48.155Z,4.43
2024-01-30T12:49:49.876Z,6.88
2024-01-30T12:53:51.497Z,8.75
2024-01-30T12:57:53.022Z,4.75
2024-01-30T13:01:55.010Z,5.93
2024-01-30T13:05:56.656Z,5.32
2024-01-30T13:10:03.960Z,4.88
2024-01-30T13:14:05.568Z,5.10
2024-01-30T13:18:07.568Z,5.20
2024-01-30T13:22:09.169Z,3.50
2024-01-30T13:26:10.673Z,5.85
2024-01-30T13:30:12.562Z,5.70
2024-01-30T13:34:15.063Z,6.57
2024-01-30T13:38:16.950Z,5.13
2024-01-30T13:42:18.524Z,4.80
2024-01-30T13:46:20.184Z,3.95
2024-01-30T13:50:21.666Z,3.88
2024-01-30T13:54:23.821Z,3.90
2024-01-30T13:58:25.359Z,4.75
2024-01-30T14:02:27.125Z,3.92
2024-01-30T14:06:28.931Z,3.28
2024-01-30T14:10:30.719Z,3.67
2024-01-30T14:14:32.248Z,4.93
2024-01-30T14:18:33.729Z,7.95
2024-01-30T14:22:35.407Z,11.10
2024-01-30T14:26:37.809Z,7.18
2024-01-30T14:30:39.369Z,9.55
2024-01-30T14:34:41.083Z,10.88
2024-01-30T14:38:43.657Z,7.90
2024-01-30T14:42:45.717Z,6.47
2024-01-30T14:46:47.370Z,6.55
2024-01-30T14:50:48.955Z,8.43
2024-01-30T14:54:50.599Z,8.30
2024-01-30T14:58:53.337Z,8.32
2024-01-30T15:02:55.008Z,10.35
2024-01-30T15:06:56.908Z,9.07
2024-01-30T15:11:00.006Z,5.70
2024-01-30T15:15:02.005Z,7.88
2024-01-30T15:19:05.926Z,6.22
2024-01-30T15:23:07.772Z,5.53
2024-01-30T15:27:09.317Z,5.25
2024-01-30T15:31:10.930Z,7.50
2024-01-30T15:35:12.595Z,5.55
2024-01-30T15:39:16.307Z,6.03
2024-01-30T15:43:17.889Z,6.40
2024-01-30T15:47:19.501Z,6.20
2024-01-30T15:51:20.956Z,6.68
2024-01-30T15:55:22.532Z,5.10
2024-01-30T15:59:24.142Z,7.60
2024-01-30T16:03:27.822Z,5.85
2024-01-30T16:07:32.352Z,4.40
2024-01-30T16:11:33.952Z,6.50
2024-01-30T16:15:35.740Z,5.05
2024-01-30T16:19:37.323Z,5.25
2024-01-30T16:23:38.982Z,6.60
2024-01-30T16:27:40.795Z,4.70
2024-01-30T16:31:42.341Z,7.20
2024-01-30T16:35:46.748Z,7.40
2024-01-30T16:39:49.513Z,5.47
2024-01-30T16:43:51.017Z,4.55
2024-01-30T16:47:52.548Z,5.10
2024-01-30T16:51:54.120Z,3.45
2024-01-30T16:55:55.679Z,6.65
2024-01-30T16:59:57.401Z,5.55
2024-01-30T17:03:58.894Z,6.95
2024-01-30T17:08:00.960Z,8.88
2024-01-30T17:12:04.116Z,7.07
2024-01-30T17:16:05.900Z,6.07
2024-01-30T17:20:08.786Z,6.22
2024-01-30T17:24:12.176Z,7.95
2024-01-30T17:28:14.505Z,5.93
2024-01-30T17:32:16.046Z,6.07
2024-01-30T17:36:17.624Z,5.88
2024-01-30T17:40:19.926Z,5.40
2024-01-30T17:44:22.011Z,3.13
2024-01-30T17:48:23.736Z,5.28
2024-01-30T17:52:25.473Z,6.25
2024-01-30T17:56:27.106Z,7.65
2024-01-30T18:00:28.728Z,7.50
2024-01-30T18:04:30.703Z,5.88
2024-01-30T18:08:35.517Z,5.47
2024-01-30T18:12:37.086Z,5.28
2024-01-30T18:16:38.673Z,5.63
2024-01-30T18:20:41.228Z,6.22
2024-01-30T18:24:43.567Z,4.88
2024-01-30T18:28:45.418Z,4.78
2024-01-30T18:32:47.338Z,5.65
2024-01-30T18:36:48.881Z,6.10
2024-01-30T18:40:50.552Z,6.32
2024-01-30T18:44:52.035Z,7.25
2024-01-30T18:48:53.746Z,4.90
2024-01-30T18:52:55.361Z,6.45
2024-01-30T18:56:56.832Z,8.18
2024-01-30T19:00:58.447Z,4.68
2024-01-30T19:05:01.290Z,5.45
2024-01-30T19:09:03.525Z,4.63
2024-01-30T19:13:06.579Z,4.18
2024-01-30T19:17:08.163Z,5.18
2024-01-30T19:21:09.726Z,5.05
2024-01-30T19:25:11.332Z,5.63
2024-01-30T19:29:12.812Z,3.60
2024-01-30T19:33:14.276Z,5.43
2024-01-30T19:37:15.755Z,3.10
2024-01-30T19:41:17.333Z,5.22
2024-01-30T19:45:18.933Z,4.82
2024-01-30T19:49:21.549Z,6.00
2024-01-30T19:53:24.293Z,4.65
2024-01-30T19:57:25.820Z,6.60
2024-01-30T20:01:27.584Z,5.65
2024-01-30T20:05:29.308Z,8.00
2024-01-30T20:09:30.883Z,7.35
2024-01-30T20:13:33.058Z,5.70
2024-01-30T20:17:34.756Z,6.43
2024-01-30T20:21:37.112Z,4.50
2024-01-30T20:25:38.672Z,5.03
2024-01-30T20:29:40.159Z,6.43
2024-01-30T20:33:41.959Z,5.47
2024-01-30T20:37:43.579Z,6.90
2024-01-30T20:41:45.981Z,6.07
2024-01-30T20:45:47.609Z,6.38
2024-01-30T20:49:49.240Z,4.57
2024-01-30T20:53:50.699Z,7.45
2024-01-30T20:57:52.384Z,5.57
2024-01-30T21:01:53.996Z,5.90
2024-01-30T21:05:56.445Z,3.72
2024-01-30T21:09:58.056Z,3.72
2024-01-30T21:13:59.672Z,3.28
2024-01-30T21:18:01.696Z,1.95
2024-01-30T21:22:03.287Z,2.95
2024-01-30T21:26:05.034Z,3.45
2024-01-30T21:30:07.764Z,4.60
2024-01-30T21:34:09.315Z,2.47
2024-01-30T21:38:10.808Z,3.60
2024-01-30T21:42:12.424Z,3.78
2024-01-30T21:46:24.060Z,2.78
2024-01-30T21:50:25.657Z,2.22
2024-01-30T21:54:27.137Z,2.58
2024-01-30T21:58:28.711Z,2.60
2024-01-30T22:02:30.199Z,3.33
2024-01-30T22:06:31.811Z,3.03
2024-01-30T22:10:33.460Z,2.83
2024-01-30T22:14:36.375Z,3.63
2024-01-30T22:18:38.031Z,4.45
2024-01-30T22:22:39.512Z,1.90
2024-01-30T22:26:42.691Z,1.95
2024-01-30T22:30:44.330Z,2.10
2024-01-30T22:34:45.930Z,4.22
2024-01-30T22:38:47.411Z,1.67
2024-01-30T22:42:48.905Z,3.05
2024-01-30T22:46:50.490Z,3.38
2024-01-30T22:50:52.090Z,2.97
2024-01-30T22:54:53.654Z,3.10
2024-01-30T22:58:55.217Z,2.85
2024-01-30T23:02:57.783Z,2.85
2024-01-30T23:06:59.551Z,2.67
2024-01-30T23:11:01.012Z,1.75
2024-01-30T23:15:03.874Z,2.00
2024-01-30T23:19:05.574Z,3.30
2024-01-30T23:23:09.268Z,2.38
2024-01-30T23:27:10.706Z,2.28
2024-01-30T23:31:12.272Z,3.25
2024-01-30T23:35:13.982Z,2.38
2024-01-30T23:39:15.631Z,1.73
2024-01-30T23:43:17.166Z,2.38
2024-01-30T23:47:18.769Z,2.17
2024-01-30T23:51:20.266Z,1.75
2024-01-30T23:55:21.763Z,1.73
2024-01-30T23:59:23.460Z,1.38
